I CARRERA RAYISMO 18
Skip Navigation Links
Resultados
Detalles
13 May 2018
HyperLink
Page 1 of 17 (847 items)
[1]234567...14151617
Pos General
Dorsal
Favorito
Comparte
Diploma
Nombre
Tiempo
Tiempo Neto
Categoria
Sexo
Ritmo
11065Ricardo Alexandre Goncalves Espada00:31:4200:31:42SENIORMale3:10 min/km
2190EDUARDO GODOY CAMACHO00:34:1700:34:17SENIORMale3:25 min/km
3470MIGUEL DEL POZO ÁLVAREZ00:34:1700:34:17SENIORMale3:25 min/km
4521ENRIQUE ROMERO PERALES00:34:3900:34:39SENIORMale3:27 min/km
5322BRUNO MARTIN MARTINEZ00:35:2100:35:21VETERANO AMale3:32 min/km
6702DAVID CORBALÁN VÁZQUEZ00:36:0500:36:05SENIORMale3:36 min/km
71047Chema Martinez00:37:1100:37:11SENIORMale3:43 min/km
8603RODRIGO OHELER SALINAS00:37:1500:37:15SENIORMale3:43 min/km
9412PEDRO SANZ SANZ00:37:1900:37:19VETERANO AMale3:43 min/km
10804JUAN VÁZQUEZ PÉREZ00:37:2500:37:06SENIORMale3:44 min/km
11236ALEJANDRO DE LA TORRE NAVARRO00:37:3500:37:35SENIORMale3:45 min/km
121064Jose Cao Cardenas00:37:5000:37:50SENIORMale3:47 min/km
13185JOSE ANTONIO TUDA REBOLLO00:37:5300:37:53SENIORMale3:47 min/km
14416JUAN CARLOS RODRÍGUEZ HERRANZ00:37:5600:37:56VETERANO AMale3:47 min/km
15581DIEGO GOMEZ LASERNA00:38:0000:37:49SENIORMale3:48 min/km
16104JUAN ANTONIO PEREZ FERNANDEZ00:38:1500:38:03SENIORMale3:49 min/km
17911RAFAEL FERNÁNDEZ GONZÁLEZ00:38:2600:38:26VETERANO BMale3:50 min/km
181048SIN ASIGNAR00:38:2800:38:28SENIORUnknown3:50 min/km
191049SIN ASIGNAR00:38:3000:38:30SENIORUnknown3:51 min/km
20619SERGIO LIZANA CALVO00:38:3300:38:30SENIORMale3:51 min/km
21577ANGEL IGLESIAS YUSTE00:38:3900:38:38SENIORMale3:51 min/km
22294MIGUEL MATIAS BARREIRO00:38:5000:38:41VETERANO AMale3:53 min/km
23276ANTONIO SÁENZ DE FRUTOS00:38:5600:38:48VETERANO AMale3:53 min/km
24324DAVID RODRIGUEZ MARTINEZ00:38:5900:38:59VETERANO AMale3:53 min/km
25545DARÍO SAN MARTÍN GRIÑÁN00:39:0200:38:59VETERANO AMale3:54 min/km
26527DANIEL CASARRUBIO DE LA CRUZ00:39:0300:39:03SENIORMale3:54 min/km
2771RICARDO LÓPEZ MACÍAS00:39:1500:39:14SENIORMale3:55 min/km
28334RAÚL TEMPLADO MILLÁN00:39:1500:39:15VETERANO AMale3:55 min/km
29308VICTOR VILLAFRANCA BALLESTEROS00:39:2200:39:22SENIORMale3:56 min/km
301024JOSE LUIS LAMELA LOPEZ00:39:2500:39:24VETERANO AMale3:56 min/km
31147JOSE CARRANZA ROSALES00:39:3000:39:26SENIORMale3:57 min/km
32214SANTIAGO LOZANO GARCIA00:39:3400:39:34VETERANO AMale3:57 min/km
331058SIN ASIGNAR00:39:3700:39:37SENIORUnknown3:57 min/km
34768JOSÉ JUAN RUIZ CORPAS00:39:5000:39:49VETERANO AMale3:59 min/km
35135DIEGO MORENO MUÑOZ00:39:5500:39:55SENIORMale3:59 min/km
36258VÍCTOR BENITO ALCALÁ00:39:5600:39:56SENIORMale3:59 min/km
37475GUSTAVO GOMEZ GUERRA00:39:5700:39:57VETERANO CMale3:59 min/km
38399MIGUEL ÁNGEL SANCHO LÓPEZ00:40:0000:40:00SENIORMale4:00 min/km
39405TITO RODRIGUEZ00:40:1500:40:15SENIORMale4:01 min/km
40241BORJA CAMPAYO RAMOS00:40:4900:40:47SENIORMale4:04 min/km
41541MARIO BENITO RODRIGUEZ00:40:5500:40:46SENIORMale4:05 min/km
4277RAFAEL ZARCO DEL OLMO00:40:5500:40:55VETERANO AMale4:05 min/km
43899GUILLERMO DÍAZ LÓPEZ00:40:5500:40:46SENIORMale4:05 min/km
44808ALEJANDRO MENENDEZ GONZALEZ00:40:5600:40:56VETERANO AMale4:05 min/km
451062SIN ASIGNAR00:40:5600:40:56SENIORUnknown4:05 min/km
46234JORGE CAMPAYO RAMOS00:41:0700:41:05SENIORMale4:06 min/km
47526ALBERTO GREDIAGA PÉREZ00:41:1000:41:05VETERANO AMale4:07 min/km
48191ALBERTO MANZANO MARTIN00:41:2200:41:22SENIORMale4:08 min/km
49100JOSÉ RAMON CERON TORREGROSA00:41:2400:41:24VETERANO AMale4:08 min/km
50343NICOLÁS URBINATI00:41:3000:41:24SENIORMale4:09 min/km
Page 1 of 17 (847 items)
[1]234567...14151617

HyperLink Copyright (c) G Vincent, 2018